createdAt,value
2018-04-23T00:01:49.287Z,5.60
2018-04-23T00:04:18.118Z,6.05
2018-04-23T00:06:47.011Z,5.60
2018-04-23T00:09:15.075Z,6.30
2018-04-23T00:11:43.107Z,6.20
2018-04-23T00:14:11.167Z,7.00
2018-04-23T00:16:39.991Z,5.85
2018-04-23T00:19:08.043Z,6.35
2018-04-23T00:21:36.351Z,5.47
2018-04-23T00:24:05.157Z,6.00
2018-04-23T00:26:33.966Z,7.22
2018-04-23T00:29:02.204Z,5.93
2018-04-23T00:31:30.382Z,6.45
2018-04-23T00:33:58.418Z,5.78
2018-04-23T00:36:27.252Z,6.47
2018-04-23T00:38:55.339Z,6.40
2018-04-23T00:41:23.403Z,6.65
2018-04-23T00:43:51.455Z,6.05
2018-04-23T00:46:19.496Z,6.75
2018-04-23T00:48:47.554Z,5.93
2018-04-23T00:51:15.600Z,6.53
2018-04-23T00:53:43.616Z,5.95
2018-04-23T00:56:11.607Z,6.43
2018-04-23T00:58:39.595Z,6.82
2018-04-23T01:01:07.603Z,5.80
2018-04-23T01:03:35.619Z,5.90
2018-04-23T01:06:04.387Z,6.37
2018-04-23T01:08:32.386Z,7.10
2018-04-23T01:11:00.407Z,6.35
2018-04-23T01:13:28.395Z,6.70
2018-04-23T01:15:56.423Z,6.62
2018-04-23T01:18:24.418Z,6.60
2018-04-23T01:20:52.423Z,7.47
2018-04-23T01:23:21.217Z,6.37
2018-04-23T01:25:49.219Z,7.43
2018-04-23T01:28:17.300Z,6.22
2018-04-23T01:30:45.298Z,6.75
2018-04-23T01:33:13.303Z,7.60
2018-04-23T01:35:41.301Z,6.87
2018-04-23T01:38:09.315Z,7.40
2018-04-23T01:40:38.091Z,6.60
2018-04-23T01:43:06.087Z,7.35
2018-04-23T01:45:34.101Z,6.50
2018-04-23T01:48:02.110Z,7.87
2018-04-23T01:50:30.651Z,7.30
2018-04-23T01:52:58.709Z,7.57
2018-04-23T01:55:26.715Z,7.22
2018-04-23T01:57:54.719Z,6.60
2018-04-23T02:00:23.493Z,6.70
2018-04-23T02:02:51.840Z,5.93
2018-04-23T02:05:19.919Z,6.40
2018-04-23T02:07:47.931Z,7.50
2018-04-23T02:10:16.319Z,6.55
2018-04-23T02:12:44.303Z,6.57
2018-04-23T02:15:12.319Z,7.40
2018-04-23T02:17:41.099Z,7.32
2018-04-23T02:20:09.099Z,6.90
2018-04-23T02:22:37.103Z,7.05
2018-04-23T02:25:05.880Z,7.00
2018-04-23T02:27:33.873Z,7.28
2018-04-23T02:30:01.940Z,6.57
2018-04-23T02:32:29.960Z,7.37
2018-04-23T02:34:58.711Z,7.05
2018-04-23T02:37:26.727Z,7.72
2018-04-23T02:39:55.516Z,6.70
2018-04-23T02:42:23.516Z,7.40
2018-04-23T02:44:51.533Z,7.40
2018-04-23T02:47:21.371Z,6.43
2018-04-23T02:49:49.377Z,7.18
2018-04-23T02:52:18.139Z,7.72
2018-04-23T02:54:46.150Z,7.68
2018-04-23T02:57:14.143Z,6.53
2018-04-23T02:59:43.656Z,7.62
2018-04-23T03:02:11.668Z,8.10
2018-04-23T03:04:40.447Z,8.18
2018-04-23T03:07:08.455Z,7.37
2018-04-23T03:09:37.236Z,7.18
2018-04-23T03:12:05.235Z,7.50
2018-04-23T03:14:34.003Z,7.43
2018-04-23T03:17:02.017Z,8.15
2018-04-23T03:19:30.000Z,7.55
2018-04-23T03:21:58.767Z,6.60
2018-04-23T03:24:26.777Z,7.62
2018-04-23T03:26:54.775Z,8.32
2018-04-23T03:29:23.546Z,7.72
2018-04-23T03:31:51.569Z,8.30
2018-04-23T03:34:20.336Z,7.82
2018-04-23T03:36:48.330Z,7.32
2018-04-23T03:39:17.107Z,8.23
2018-04-23T03:41:45.098Z,7.78
2018-04-23T03:44:13.107Z,7.53
2018-04-23T03:46:41.887Z,7.57
2018-04-23T03:49:09.888Z,7.35
2018-04-23T03:51:38.671Z,7.20
2018-04-23T03:54:08.183Z,7.43
2018-04-23T03:56:36.943Z,7.90
2018-04-23T03:59:04.954Z,7.30
2018-04-23T04:01:32.960Z,7.82
2018-04-23T04:04:00.952Z,7.15
2018-04-23T04:06:29.725Z,7.55
2018-04-23T04:08:57.731Z,8.27
2018-04-23T04:11:26.514Z,7.43
2018-04-23T04:14:06.423Z,8.20
2018-04-23T04:16:46.342Z,7.97
2018-04-23T04:19:14.350Z,7.90
2018-04-23T04:21:43.123Z,7.60
2018-04-23T04:24:11.129Z,7.50
2018-04-23T04:26:39.988Z,8.32
2018-04-23T04:29:07.991Z,7.90
2018-04-23T04:31:35.997Z,7.80
2018-04-23T04:34:04.810Z,7.95
2018-04-23T04:36:32.820Z,7.40
2018-04-23T04:39:00.823Z,6.95
2018-04-23T04:41:28.828Z,7.60
2018-04-23T04:43:57.662Z,7.70
2018-04-23T04:46:25.607Z,7.65
2018-04-23T04:48:53.619Z,7.37
2018-04-23T04:51:22.428Z,8.45
2018-04-23T04:53:51.183Z,7.68
2018-04-23T04:56:19.190Z,8.23
2018-04-23T04:58:47.208Z,7.97
2018-04-23T05:01:15.192Z,7.78
2018-04-23T05:03:43.473Z,8.35
2018-04-23T05:06:11.498Z,8.73
2018-04-23T05:08:39.483Z,7.55
2018-04-23T05:11:07.487Z,8.23
2018-04-23T05:13:35.682Z,8.00
2018-04-23T05:16:05.179Z,8.07
2018-04-23T05:18:33.195Z,8.85
2018-04-23T05:21:01.975Z,7.55
2018-04-23T05:23:29.973Z,9.55
2018-04-23T05:25:58.754Z,8.00
2018-04-23T05:28:26.771Z,7.55
2018-04-23T05:30:54.779Z,8.82
2018-04-23T05:33:22.798Z,8.52
2018-04-23T05:35:50.805Z,8.07
2018-04-23T05:38:18.822Z,8.63
2018-04-23T05:40:46.833Z,7.78
2018-04-23T05:43:14.841Z,7.55
2018-04-23T05:45:42.846Z,7.65
2018-04-23T05:48:11.606Z,6.70
2018-04-23T05:50:39.611Z,7.70
2018-04-23T05:53:08.374Z,8.55
2018-04-23T05:55:37.191Z,6.47
2018-04-23T05:58:05.207Z,6.35
2018-04-23T06:00:33.962Z,7.40
2018-04-23T06:03:02.027Z,7.22
2018-04-23T06:05:30.239Z,7.12
2018-04-23T06:07:58.222Z,7.75
2018-04-23T06:10:26.237Z,8.27
2018-04-23T06:12:54.243Z,6.70
2018-04-23T06:15:22.259Z,6.85
2018-04-23T06:17:50.283Z,6.75
2018-04-23T06:20:19.071Z,8.98
2018-04-23T06:22:48.583Z,7.72
2018-04-23T06:25:16.603Z,7.62
2018-04-23T06:27:44.671Z,7.12
2018-04-23T06:30:13.427Z,7.10
2018-04-23T06:32:41.427Z,6.45
2018-04-23T06:35:09.434Z,6.53
2018-04-23T06:37:38.194Z,5.57
2018-04-23T06:40:06.211Z,5.60
2018-04-23T06:42:34.994Z,5.30
2018-04-23T06:45:03.004Z,4.30
2018-04-23T06:47:31.783Z,4.90
2018-04-23T06:49:59.847Z,5.30
2018-04-23T06:52:27.852Z,4.45
2018-04-23T06:54:55.867Z,5.70
2018-04-23T06:57:24.651Z,4.53
2018-04-23T06:59:53.410Z,4.82
2018-04-23T07:02:21.428Z,5.40
2018-04-23T07:04:49.465Z,4.87
2018-04-23T07:07:17.459Z,5.40
2018-04-23T07:09:45.479Z,4.57
2018-04-23T07:12:13.520Z,5.18
2018-04-23T07:14:41.516Z,4.75
2018-04-23T07:17:09.530Z,4.43
2018-04-23T07:19:38.322Z,4.80
2018-04-23T07:22:06.331Z,5.30
2018-04-23T07:24:35.114Z,5.22
2018-04-23T07:27:03.147Z,5.15
2018-04-23T07:29:31.154Z,4.30
2018-04-23T07:31:59.175Z,3.80
2018-04-23T07:34:27.280Z,3.80
2018-04-23T07:36:55.277Z,4.53
2018-04-23T07:39:23.303Z,3.60
2018-04-23T07:41:51.367Z,3.67
2018-04-23T07:44:19.376Z,3.10
2018-04-23T07:46:47.404Z,4.18
2018-04-23T07:49:15.429Z,3.72
2018-04-23T07:51:43.593Z,3.75
2018-04-23T07:54:11.665Z,3.65
2018-04-23T07:56:40.423Z,3.80
2018-04-23T07:59:09.187Z,3.78
2018-04-23T08:01:37.249Z,2.87
2018-04-23T08:04:06.095Z,3.80
2018-04-23T08:06:34.155Z,3.87
2018-04-23T08:09:02.878Z,3.40
2018-04-23T08:11:30.931Z,3.60
2018-04-23T08:13:58.955Z,3.92
2018-04-23T08:16:26.963Z,3.00
2018-04-23T08:18:55.239Z,3.60
2018-04-23T08:21:24.015Z,3.67
2018-04-23T08:23:53.557Z,3.90
2018-04-23T08:26:22.355Z,3.60
2018-04-23T08:28:51.128Z,3.50
2018-04-23T08:31:19.143Z,5.10
2018-04-23T08:33:47.967Z,3.37
2018-04-23T08:36:15.960Z,3.35
2018-04-23T08:38:44.019Z,3.47
2018-04-23T08:41:12.043Z,3.90
2018-04-23T08:43:40.075Z,3.30
2018-04-23T08:46:09.216Z,3.90
2018-04-23T08:48:37.252Z,3.33
2018-04-23T08:51:05.255Z,3.50
2018-04-23T08:53:34.034Z,3.90
2018-04-23T08:56:02.047Z,3.47
2018-04-23T08:58:30.085Z,3.50
2018-04-23T09:00:58.106Z,3.30
2018-04-23T09:03:26.884Z,4.30
2018-04-23T09:05:54.889Z,3.40
2018-04-23T09:08:22.900Z,3.73
2018-04-23T09:10:50.911Z,4.45
2018-04-23T09:13:18.940Z,3.97
2018-04-23T09:15:47.732Z,3.75
2018-04-23T09:18:16.532Z,4.35
2018-04-23T09:20:44.533Z,3.97
2018-04-23T09:23:13.319Z,3.37
2018-04-23T09:25:43.044Z,4.05
2018-04-23T09:28:11.811Z,3.85
2018-04-23T09:30:39.855Z,4.45
2018-04-23T09:33:07.879Z,4.12
2018-04-23T09:35:35.880Z,4.40
2018-04-23T09:38:05.143Z,3.67
2018-04-23T09:40:33.171Z,3.90
2018-04-23T09:43:01.166Z,4.68
2018-04-23T09:45:29.182Z,3.85
2018-04-23T09:47:57.207Z,4.53
2018-04-23T09:50:25.215Z,3.90
2018-04-23T09:52:53.232Z,2.83
2018-04-23T09:55:21.260Z,3.75
2018-04-23T09:57:49.334Z,3.00
2018-04-23T10:00:23.037Z,3.67
2018-04-23T10:02:51.043Z,3.25
2018-04-23T10:05:19.039Z,2.40
2018-04-23T10:07:47.076Z,3.10
2018-04-23T10:10:15.089Z,3.10
2018-04-23T10:12:43.136Z,2.65
2018-04-23T10:15:11.175Z,2.53
2018-04-23T10:17:39.188Z,2.83
2018-04-23T10:20:07.946Z,3.15
2018-04-23T10:22:35.975Z,3.47
2018-04-23T10:25:04.809Z,2.80
2018-04-23T10:27:32.807Z,2.70
2018-04-23T10:30:00.815Z,2.80
2018-04-23T10:32:30.332Z,2.70
2018-04-23T10:34:58.329Z,3.33
2018-04-23T10:37:27.108Z,3.12
2018-04-23T10:39:55.123Z,2.30
2018-04-23T10:42:23.887Z,2.10
2018-04-23T10:44:51.931Z,2.95
2018-04-23T10:47:19.969Z,5.45
2018-04-23T10:49:47.973Z,2.80
2018-04-23T10:52:16.739Z,3.00
2018-04-23T10:54:44.743Z,2.37
2018-04-23T10:57:13.502Z,3.15
2018-04-23T10:59:41.518Z,2.90
2018-04-23T11:02:09.570Z,2.75
2018-04-23T11:04:37.556Z,2.70
2018-04-23T11:07:05.579Z,2.97
2018-04-23T11:09:34.346Z,2.83
2018-04-23T11:12:02.350Z,2.55
2018-04-23T11:14:32.175Z,3.28
2018-04-23T11:17:00.203Z,2.80
2018-04-23T11:19:28.206Z,3.28
2018-04-23T11:21:56.216Z,2.72
2018-04-23T11:24:24.239Z,4.55
2018-04-23T11:26:52.239Z,2.83
2018-04-23T11:29:20.259Z,3.67
2018-04-23T11:31:48.262Z,3.67
2018-04-23T11:34:16.324Z,3.30
2018-04-23T11:36:44.325Z,2.67
2018-04-23T11:39:13.108Z,2.92
2018-04-23T11:41:41.094Z,3.22
2018-04-23T11:44:09.111Z,3.55
2018-04-23T11:46:37.883Z,2.97
2018-04-23T11:49:05.921Z,3.75
2018-04-23T11:51:34.768Z,3.12
2018-04-23T11:54:02.776Z,3.60
2018-04-23T11:56:31.527Z,3.45
2018-04-23T11:58:59.551Z,3.37
2018-04-23T12:01:28.332Z,3.20
2018-04-23T12:03:56.327Z,3.67
2018-04-23T12:06:24.340Z,2.83
2018-04-23T12:08:52.378Z,4.05
2018-04-23T12:11:20.374Z,4.20
2018-04-23T12:13:48.591Z,3.72
2018-04-23T12:16:16.619Z,3.95
2018-04-23T12:18:44.755Z,4.90
2018-04-23T12:21:13.539Z,3.67
2018-04-23T12:23:41.547Z,4.65
2018-04-23T12:26:09.538Z,3.70
2018-04-23T12:28:37.604Z,3.85
2018-04-23T12:31:05.576Z,3.87
2018-04-23T12:33:34.335Z,5.00
2018-04-23T12:36:02.617Z,4.00
2018-04-23T12:38:30.631Z,3.42
2018-04-23T12:40:58.708Z,3.28
2018-04-23T12:43:26.719Z,3.75
2018-04-23T12:45:55.971Z,3.58
2018-04-23T12:48:24.252Z,3.70
2018-04-23T12:50:52.277Z,3.35
2018-04-23T12:53:20.305Z,3.00
2018-04-23T12:55:48.308Z,2.97
2018-04-23T12:58:16.327Z,3.25
2018-04-23T13:00:45.115Z,2.78
2018-04-23T13:03:13.111Z,2.87
2018-04-23T13:05:42.646Z,2.83
2018-04-23T13:08:11.434Z,3.20
2018-04-23T13:10:39.438Z,3.00
2018-04-23T13:13:08.212Z,3.70
2018-04-23T13:15:36.232Z,2.80
2018-04-23T13:18:04.246Z,3.12
2018-04-23T13:20:32.809Z,2.83
2018-04-23T13:23:01.118Z,2.60
2018-04-23T13:25:29.116Z,3.30
2018-04-23T13:27:58.179Z,2.93
2018-04-23T13:30:27.013Z,2.60
2018-04-23T13:32:55.430Z,3.78
2018-04-23T13:35:23.471Z,3.35
2018-04-23T13:37:51.519Z,2.62
2018-04-23T13:40:19.535Z,3.75
2018-04-23T13:42:47.555Z,2.95
2018-04-23T13:45:15.571Z,3.03
2018-04-23T13:47:43.574Z,3.03
2018-04-23T13:50:12.376Z,2.75
2018-04-23T13:52:40.374Z,2.70
2018-04-23T13:55:08.370Z,3.45
2018-04-23T13:57:37.274Z,3.12
2018-04-23T14:00:05.306Z,3.28
2018-04-23T14:02:33.299Z,3.30
2018-04-23T14:05:02.083Z,3.10
2018-04-23T14:07:30.862Z,3.62
2018-04-23T14:09:58.891Z,3.00
2018-04-23T14:12:27.676Z,3.25
2018-04-23T14:14:55.699Z,3.97
2018-04-23T14:17:23.714Z,3.40
2018-04-23T14:19:51.727Z,2.75
2018-04-23T14:22:19.740Z,3.65
2018-04-23T14:24:47.748Z,3.33
2018-04-23T14:27:15.755Z,4.57
2018-04-23T14:29:43.788Z,3.50
2018-04-23T14:32:11.787Z,3.40
2018-04-23T14:34:39.823Z,3.50
2018-04-23T14:37:07.840Z,3.40
2018-04-23T14:39:35.855Z,4.15
2018-04-23T14:42:04.616Z,3.60
2018-04-23T14:44:33.395Z,3.58
2018-04-23T14:47:01.373Z,2.95
2018-04-23T14:49:29.386Z,3.22
2018-04-23T14:51:57.406Z,2.53
2018-04-23T14:54:25.431Z,3.40
2018-04-23T14:56:53.424Z,2.70
2018-04-23T14:59:22.231Z,2.92
2018-04-23T15:01:51.002Z,3.03
2018-04-23T15:04:19.563Z,3.20
2018-04-23T15:06:47.594Z,2.97
2018-04-23T15:09:17.170Z,3.43
2018-04-23T15:11:45.230Z,4.05
2018-04-23T15:14:13.245Z,3.35
2018-04-23T15:16:42.532Z,3.40
2018-04-23T15:19:10.652Z,3.55
2018-04-23T15:21:38.663Z,2.30
2018-04-23T15:24:07.426Z,3.40
2018-04-23T15:26:35.423Z,3.57
2018-04-23T15:29:03.451Z,2.93
2018-04-23T15:31:31.447Z,3.30
2018-04-23T15:33:59.500Z,3.33
2018-04-23T15:36:27.521Z,3.33
2018-04-23T15:38:55.524Z,2.93
2018-04-23T15:41:23.579Z,4.10
2018-04-23T15:43:51.593Z,3.47
2018-04-23T15:46:19.635Z,4.27
2018-04-23T15:48:47.686Z,3.30
2018-04-23T15:51:15.675Z,3.47
2018-04-23T15:53:43.678Z,3.50
2018-04-23T15:56:12.462Z,3.03
2018-04-23T15:58:41.244Z,3.10
2018-04-23T16:01:09.262Z,3.20
2018-04-23T16:03:37.287Z,4.20
2018-04-23T16:06:05.364Z,3.10
2018-04-23T16:08:33.358Z,3.47
2018-04-23T16:11:01.407Z,3.07
2018-04-23T16:13:29.439Z,3.70
2018-04-23T16:15:57.435Z,4.03
2018-04-23T16:18:25.473Z,3.60
2018-04-23T16:20:53.474Z,3.80
2018-04-23T16:23:21.574Z,5.10
2018-04-23T16:25:49.658Z,3.33
2018-04-23T16:28:17.695Z,5.57
2018-04-23T16:30:45.682Z,4.30
2018-04-23T16:33:13.696Z,5.10
2018-04-23T16:35:41.717Z,3.90
2018-04-23T16:38:10.491Z,4.35
2018-04-23T16:40:38.506Z,4.17
2018-04-23T16:43:07.291Z,4.57
2018-04-23T16:45:36.073Z,4.55
2018-04-23T16:48:04.103Z,4.40
2018-04-23T16:50:32.139Z,4.32
2018-04-23T16:53:00.238Z,4.07
2018-04-23T16:55:28.263Z,4.22
2018-04-23T16:57:56.287Z,4.62
2018-04-23T17:00:25.005Z,4.00
2018-04-23T17:02:54.537Z,4.87
2018-04-23T17:05:23.335Z,3.90
2018-04-23T17:07:51.343Z,4.87
2018-04-23T17:10:19.374Z,4.47
2018-04-23T17:12:47.422Z,5.80
2018-04-23T17:15:15.420Z,5.72
2018-04-23T17:17:43.431Z,4.87
2018-04-23T17:20:11.453Z,4.55
2018-04-23T17:22:40.386Z,4.80
2018-04-23T17:25:08.398Z,4.55
2018-04-23T17:27:36.419Z,4.50
2018-04-23T17:30:04.439Z,5.00
2018-04-23T17:32:32.459Z,6.10
2018-04-23T17:35:00.483Z,4.72
2018-04-23T17:37:29.239Z,5.50
2018-04-23T17:39:57.256Z,4.55
2018-04-23T17:42:25.274Z,4.82
2018-04-23T17:44:53.415Z,4.68
2018-04-23T17:47:22.195Z,5.10
2018-04-23T17:49:50.228Z,6.05
2018-04-23T17:52:18.227Z,4.15
2018-04-23T17:54:46.279Z,5.47
2018-04-23T17:57:14.270Z,4.05
2018-04-23T17:59:42.283Z,4.87
2018-04-23T18:02:10.287Z,5.32
2018-04-23T18:04:38.299Z,4.75
2018-04-23T18:07:06.318Z,6.70
2018-04-23T18:09:35.327Z,5.53
2018-04-23T18:12:03.339Z,4.97
2018-04-23T18:14:31.356Z,5.82
2018-04-23T18:17:00.132Z,6.80
2018-04-23T18:19:28.144Z,5.72
2018-04-23T18:21:56.923Z,8.07
2018-04-23T18:24:25.711Z,5.10
2018-04-23T18:26:53.725Z,5.68
2018-04-23T18:29:21.732Z,5.07
2018-04-23T18:31:49.744Z,5.45
2018-04-23T18:34:17.743Z,4.62
2018-04-23T18:36:45.760Z,5.40
2018-04-23T18:39:13.773Z,5.00
2018-04-23T18:41:41.762Z,5.80
2018-04-23T18:44:09.771Z,4.35
2018-04-23T18:46:37.770Z,4.45
2018-04-23T18:49:06.572Z,5.43
2018-04-23T18:51:34.582Z,4.18
2018-04-23T18:54:03.156Z,3.83
2018-04-23T18:56:31.941Z,3.58
2018-04-23T18:59:01.526Z,3.95
2018-04-23T19:01:29.507Z,3.45
2018-04-23T19:03:57.553Z,3.47
2018-04-23T19:06:26.298Z,2.60
2018-04-23T19:08:54.312Z,2.30
2018-04-23T19:11:22.332Z,2.28
2018-04-23T19:13:50.329Z,2.40
2018-04-23T19:16:18.372Z,2.47
2018-04-23T19:18:47.171Z,2.35
2018-04-23T19:21:15.171Z,2.60
2018-04-23T19:23:43.962Z,2.37
2018-04-23T19:26:12.768Z,2.40
2018-04-23T19:28:41.527Z,2.67
2018-04-23T19:31:09.538Z,3.55
2018-04-23T19:33:38.322Z,2.65
2018-04-23T19:36:06.330Z,2.40
2018-04-23T19:38:35.128Z,2.45
2018-04-23T19:41:03.124Z,3.03
2018-04-23T19:43:31.893Z,2.72
2018-04-23T19:45:59.946Z,2.70
2018-04-23T19:48:28.667Z,2.50
2018-04-23T19:50:56.668Z,2.30
2018-04-23T19:53:24.674Z,2.12
2018-04-23T19:55:54.328Z,2.50
2018-04-23T19:58:22.345Z,2.60
2018-04-23T20:00:50.356Z,2.25
2018-04-23T20:03:19.144Z,1.92
2018-04-23T20:05:47.160Z,2.20
2018-04-23T20:08:15.235Z,2.22
2018-04-23T20:10:43.294Z,2.08
2018-04-23T20:13:11.291Z,1.90
2018-04-23T20:15:40.068Z,1.60
2018-04-23T20:18:08.079Z,1.35
2018-04-23T20:20:36.846Z,2.00
2018-04-23T20:23:04.869Z,1.85
2018-04-23T20:25:33.753Z,1.77
2018-04-23T20:28:01.828Z,1.70
2018-04-23T20:30:29.846Z,1.52
2018-04-23T20:32:58.616Z,1.92
2018-04-23T20:35:26.735Z,1.92
2018-04-23T20:37:54.747Z,1.80
2018-04-23T20:40:22.762Z,2.00
2018-04-23T20:42:51.732Z,1.62
2018-04-23T20:45:19.790Z,2.05
2018-04-23T20:47:48.695Z,1.92
2018-04-23T20:50:17.664Z,2.10
2018-04-23T20:52:46.463Z,2.33
2018-04-23T20:55:14.546Z,2.00
2018-04-23T20:57:43.234Z,2.03
2018-04-23T21:00:11.259Z,2.25
2018-04-23T21:02:39.302Z,1.52
2018-04-23T21:05:07.294Z,2.10
2018-04-23T21:07:35.304Z,2.35
2018-04-23T21:10:04.588Z,2.40
2018-04-23T21:12:32.586Z,2.10
2018-04-23T21:15:00.600Z,2.10
2018-04-23T21:17:28.722Z,2.28
2018-04-23T21:19:56.767Z,2.45
2018-04-23T21:22:24.823Z,1.80
2018-04-23T21:24:52.791Z,2.67
2018-04-23T21:27:20.799Z,2.67
2018-04-23T21:29:49.590Z,3.22
2018-04-23T21:32:17.611Z,3.30
2018-04-23T21:34:45.608Z,2.65
2018-04-23T21:37:13.616Z,2.47
2018-04-23T21:39:41.651Z,2.83
2018-04-23T21:42:09.651Z,3.83
2018-04-23T21:44:37.680Z,3.25
2018-04-23T21:47:05.700Z,4.05
2018-04-23T21:49:34.440Z,3.53
2018-04-23T21:52:02.447Z,3.87
2018-04-23T21:54:30.459Z,5.47
2018-04-23T21:56:58.451Z,5.45
2018-04-23T21:59:26.487Z,5.37
2018-04-23T22:01:54.593Z,6.03
2018-04-23T22:04:22.603Z,6.12
2018-04-23T22:06:50.602Z,6.40
2018-04-23T22:09:18.649Z,6.57
2018-04-23T22:11:47.398Z,7.35
2018-04-23T22:14:15.420Z,6.78
2018-04-23T22:16:43.419Z,7.57
2018-04-23T22:19:12.182Z,8.23
2018-04-23T22:21:40.195Z,8.63
2018-04-23T22:24:08.974Z,8.55
2018-04-23T22:26:36.981Z,7.43
2018-04-23T22:29:05.759Z,7.53
2018-04-23T22:31:33.859Z,8.80
2018-04-23T22:34:02.630Z,7.53
2018-04-23T22:36:30.650Z,8.15
2018-04-23T22:38:59.425Z,7.87
2018-04-23T22:41:27.430Z,8.63
2018-04-23T22:43:56.215Z,9.60
2018-04-23T22:46:24.236Z,9.10
2018-04-23T22:48:52.231Z,8.23
2018-04-23T22:51:20.392Z,9.65
2018-04-23T22:53:49.175Z,8.50
2018-04-23T22:56:18.068Z,8.90
2018-04-23T22:58:46.116Z,9.27
2018-04-23T23:01:14.103Z,9.50
2018-04-23T23:03:42.099Z,10.10
2018-04-23T23:06:10.131Z,11.15
2018-04-23T23:08:38.139Z,9.95
2018-04-23T23:11:06.164Z,11.07
2018-04-23T23:13:34.171Z,9.13
2018-04-23T23:16:02.952Z,9.90
2018-04-23T23:18:31.206Z,10.02
2018-04-23T23:20:59.239Z,11.98
2018-04-23T23:23:28.019Z,10.02
2018-04-23T23:25:56.808Z,11.75
2018-04-23T23:28:24.827Z,12.27
2018-04-23T23:30:53.617Z,10.05
2018-04-23T23:33:21.616Z,12.18
2018-04-23T23:35:50.395Z,10.43
2018-04-23T23:38:18.498Z,10.20
2018-04-23T23:40:46.667Z,12.00
2018-04-23T23:43:14.691Z,11.85
2018-04-23T23:45:42.707Z,11.65
2018-04-23T23:48:10.711Z,12.95
2018-04-23T23:50:38.723Z,11.70
2018-04-23T23:53:07.502Z,12.13
2018-04-23T23:55:35.504Z,12.23
2018-04-23T23:58:03.527Z,13.52
